sensor_id;sensor_type;location;lat;lon;timestamp;P1;durP1;ratioP1;P2;durP2;ratioP2
36371;SDS011;22398;51.346;12.372;2023-03-02T00:03:30;20.10;;;8.27;;
36371;SDS011;22398;51.346;12.372;2023-03-02T00:08:34;15.73;;;7.00;;
36371;SDS011;22398;51.346;12.372;2023-03-02T00:13:39;14.10;;;6.40;;
36371;SDS011;22398;51.346;12.372;2023-03-02T00:18:44;12.73;;;6.47;;
36371;SDS011;22398;51.346;12.372;2023-03-02T00:23:48;16.88;;;7.60;;
36371;SDS011;22398;51.346;12.372;2023-03-02T00:28:51;23.10;;;8.68;;
36371;SDS011;22398;51.346;12.372;2023-03-02T00:33:56;19.00;;;7.20;;
36371;SDS011;22398;51.346;12.372;2023-03-02T00:39:00;18.33;;;8.00;;
36371;SDS011;22398;51.346;12.372;2023-03-02T00:44:04;21.17;;;8.70;;
36371;SDS011;22398;51.346;12.372;2023-03-02T00:49:09;22.27;;;8.38;;
36371;SDS011;22398;51.346;12.372;2023-03-02T00:59:17;17.42;;;7.50;;
36371;SDS011;22398;51.346;12.372;2023-03-02T01:04:45;14.68;;;6.72;;
36371;SDS011;22398;51.346;12.372;2023-03-02T01:09:48;15.77;;;7.40;;
36371;SDS011;22398;51.346;12.372;2023-03-02T01:14:52;19.20;;;7.35;;
36371;SDS011;22398;51.346;12.372;2023-03-02T01:19:56;14.50;;;6.85;;
36371;SDS011;22398;51.346;12.372;2023-03-02T01:25:00;17.55;;;7.40;;
36371;SDS011;22398;51.346;12.372;2023-03-02T01:30:04;23.45;;;7.93;;
36371;SDS011;22398;51.346;12.372;2023-03-02T01:35:10;21.87;;;7.47;;
36371;SDS011;22398;51.346;12.372;2023-03-02T01:40:13;16.60;;;7.57;;
36371;SDS011;22398;51.346;12.372;2023-03-02T01:51:00;25.48;;;8.45;;
36371;SDS011;22398;51.346;12.372;2023-03-02T01:56:05;23.48;;;8.18;;
36371;SDS011;22398;51.346;12.372;2023-03-02T02:01:09;18.20;;;8.63;;
36371;SDS011;22398;51.346;12.372;2023-03-02T02:06:20;19.40;;;8.63;;
36371;SDS011;22398;51.346;12.372;2023-03-02T02:11:26;14.93;;;7.50;;
36371;SDS011;22398;51.346;12.372;2023-03-02T02:16:30;18.52;;;7.90;;
36371;SDS011;22398;51.346;12.372;2023-03-02T02:21:37;23.13;;;8.57;;
36371;SDS011;22398;51.346;12.372;2023-03-02T02:26:42;22.40;;;8.23;;
36371;SDS011;22398;51.346;12.372;2023-03-02T02:31:49;24.40;;;8.70;;
36371;SDS011;22398;51.346;12.372;2023-03-02T02:36:58;19.27;;;9.23;;
36371;SDS011;22398;51.346;12.372;2023-03-02T02:42:10;19.85;;;8.07;;
36371;SDS011;22398;51.346;12.372;2023-03-02T02:47:18;23.70;;;9.10;;
36371;SDS011;22398;51.346;12.372;2023-03-02T02:52:24;19.52;;;8.45;;
36371;SDS011;22398;51.346;12.372;2023-03-02T02:57:29;19.63;;;7.38;;
36371;SDS011;22398;51.346;12.372;2023-03-02T03:02:33;19.20;;;8.07;;
36371;SDS011;22398;51.346;12.372;2023-03-02T03:07:45;20.95;;;8.30;;
36371;SDS011;22398;51.346;12.372;2023-03-02T03:12:51;17.73;;;9.03;;
36371;SDS011;22398;51.346;12.372;2023-03-02T03:23:00;20.42;;;8.50;;
36371;SDS011;22398;51.346;12.372;2023-03-02T03:28:06;20.45;;;7.80;;
36371;SDS011;22398;51.346;12.372;2023-03-02T03:33:09;22.43;;;8.83;;
36371;SDS011;22398;51.346;12.372;2023-03-02T03:38:13;24.15;;;8.88;;
36371;SDS011;22398;51.346;12.372;2023-03-02T03:43:21;30.02;;;8.68;;
36371;SDS011;22398;51.346;12.372;2023-03-02T03:48:27;33.75;;;9.60;;
36371;SDS011;22398;51.346;12.372;2023-03-02T03:53:30;22.00;;;10.07;;
36371;SDS011;22398;51.346;12.372;2023-03-02T03:58:36;24.73;;;10.02;;
36371;SDS011;22398;51.346;12.372;2023-03-02T04:03:40;24.90;;;9.73;;
36371;SDS011;22398;51.346;12.372;2023-03-02T04:08:43;27.08;;;10.27;;
36371;SDS011;22398;51.346;12.372;2023-03-02T04:13:48;26.35;;;9.38;;
36371;SDS011;22398;51.346;12.372;2023-03-02T04:18:52;31.88;;;10.07;;
36371;SDS011;22398;51.346;12.372;2023-03-02T04:23:56;28.52;;;9.82;;
36371;SDS011;22398;51.346;12.372;2023-03-02T04:29:01;21.23;;;9.23;;
36371;SDS011;22398;51.346;12.372;2023-03-02T04:34:05;27.48;;;9.32;;
36371;SDS011;22398;51.346;12.372;2023-03-02T04:39:13;22.67;;;9.20;;
36371;SDS011;22398;51.346;12.372;2023-03-02T04:44:24;22.02;;;9.73;;
36371;SDS011;22398;51.346;12.372;2023-03-02T04:49:27;23.00;;;9.25;;
36371;SDS011;22398;51.346;12.372;2023-03-02T04:54:31;23.38;;;8.85;;
36371;SDS011;22398;51.346;12.372;2023-03-02T04:59:36;20.77;;;8.85;;
36371;SDS011;22398;51.346;12.372;2023-03-02T05:04:39;22.90;;;8.53;;
36371;SDS011;22398;51.346;12.372;2023-03-02T05:09:43;24.48;;;9.80;;
36371;SDS011;22398;51.346;12.372;2023-03-02T05:14:48;20.42;;;8.88;;
36371;SDS011;22398;51.346;12.372;2023-03-02T05:19:51;28.55;;;9.43;;
36371;SDS011;22398;51.346;12.372;2023-03-02T05:24:54;25.45;;;9.50;;
36371;SDS011;22398;51.346;12.372;2023-03-02T05:29:59;22.17;;;9.40;;
36371;SDS011;22398;51.346;12.372;2023-03-02T05:35:03;29.65;;;9.80;;
36371;SDS011;22398;51.346;12.372;2023-03-02T05:40:07;21.63;;;8.57;;
36371;SDS011;22398;51.346;12.372;2023-03-02T05:45:16;25.17;;;8.57;;
36371;SDS011;22398;51.346;12.372;2023-03-02T05:50:21;20.83;;;8.25;;
36371;SDS011;22398;51.346;12.372;2023-03-02T05:55:24;18.48;;;8.45;;
36371;SDS011;22398;51.346;12.372;2023-03-02T06:00:29;22.70;;;8.82;;
36371;SDS011;22398;51.346;12.372;2023-03-02T06:05:32;20.60;;;9.20;;
36371;SDS011;22398;51.346;12.372;2023-03-02T06:10:36;20.73;;;8.82;;
36371;SDS011;22398;51.346;12.372;2023-03-02T06:15:40;21.15;;;7.80;;
36371;SDS011;22398;51.346;12.372;2023-03-02T06:20:44;25.58;;;8.88;;
36371;SDS011;22398;51.346;12.372;2023-03-02T06:25:47;27.02;;;8.57;;
36371;SDS011;22398;51.346;12.372;2023-03-02T06:30:52;20.88;;;8.00;;
36371;SDS011;22398;51.346;12.372;2023-03-02T06:35:55;23.03;;;8.57;;
36371;SDS011;22398;51.346;12.372;2023-03-02T06:40:59;37.63;;;9.60;;
36371;SDS011;22398;51.346;12.372;2023-03-02T06:46:03;20.83;;;7.70;;
36371;SDS011;22398;51.346;12.372;2023-03-02T06:51:07;21.33;;;8.75;;
36371;SDS011;22398;51.346;12.372;2023-03-02T06:56:10;21.73;;;8.20;;
36371;SDS011;22398;51.346;12.372;2023-03-02T07:01:16;21.55;;;8.43;;
36371;SDS011;22398;51.346;12.372;2023-03-02T07:06:19;23.05;;;8.77;;
36371;SDS011;22398;51.346;12.372;2023-03-02T07:11:23;26.10;;;10.23;;
36371;SDS011;22398;51.346;12.372;2023-03-02T07:16:28;20.65;;;10.02;;
36371;SDS011;22398;51.346;12.372;2023-03-02T07:26:35;23.92;;;8.65;;
36371;SDS011;22398;51.346;12.372;2023-03-02T07:31:40;23.90;;;9.30;;
36371;SDS011;22398;51.346;12.372;2023-03-02T07:41:47;27.73;;;10.55;;
36371;SDS011;22398;51.346;12.372;2023-03-02T07:46:56;18.63;;;8.45;;
36371;SDS011;22398;51.346;12.372;2023-03-02T07:51:59;25.20;;;11.60;;
36371;SDS011;22398;51.346;12.372;2023-03-02T07:57:03;27.23;;;10.55;;
36371;SDS011;22398;51.346;12.372;2023-03-02T08:02:09;27.27;;;12.18;;
36371;SDS011;22398;51.346;12.372;2023-03-02T08:07:16;28.15;;;11.52;;
36371;SDS011;22398;51.346;12.372;2023-03-02T08:12:19;31.40;;;11.70;;
36371;SDS011;22398;51.346;12.372;2023-03-02T08:17:24;28.60;;;11.02;;
36371;SDS011;22398;51.346;12.372;2023-03-02T08:22:27;34.00;;;11.30;;
36371;SDS011;22398;51.346;12.372;2023-03-02T08:27:30;26.10;;;11.82;;
36371;SDS011;22398;51.346;12.372;2023-03-02T08:32:35;30.98;;;14.35;;
36371;SDS011;22398;51.346;12.372;2023-03-02T08:37:38;21.87;;;11.23;;
36371;SDS011;22398;51.346;12.372;2023-03-02T08:42:42;21.02;;;10.52;;
36371;SDS011;22398;51.346;12.372;2023-03-02T08:47:46;29.33;;;11.57;;
36371;SDS011;22398;51.346;12.372;2023-03-02T08:52:50;28.73;;;13.17;;
36371;SDS011;22398;51.346;12.372;2023-03-02T08:57:53;27.05;;;11.68;;
36371;SDS011;22398;51.346;12.372;2023-03-02T09:02:58;30.15;;;12.43;;
36371;SDS011;22398;51.346;12.372;2023-03-02T09:08:02;31.85;;;12.35;;
36371;SDS011;22398;51.346;12.372;2023-03-02T09:13:07;29.85;;;12.43;;
36371;SDS011;22398;51.346;12.372;2023-03-02T09:18:12;23.48;;;11.15;;
36371;SDS011;22398;51.346;12.372;2023-03-02T09:23:15;25.87;;;11.90;;
36371;SDS011;22398;51.346;12.372;2023-03-02T09:28:18;25.30;;;11.20;;
36371;SDS011;22398;51.346;12.372;2023-03-02T09:33:24;28.00;;;11.07;;
36371;SDS011;22398;51.346;12.372;2023-03-02T09:38:28;22.83;;;11.20;;
36371;SDS011;22398;51.346;12.372;2023-03-02T09:43:33;29.73;;;13.18;;
36371;SDS011;22398;51.346;12.372;2023-03-02T09:48:50;24.73;;;11.05;;
36371;SDS011;22398;51.346;12.372;2023-03-02T09:54:07;22.63;;;10.52;;
36371;SDS011;22398;51.346;12.372;2023-03-02T09:59:17;29.92;;;12.48;;
36371;SDS011;22398;51.346;12.372;2023-03-02T10:04:26;22.08;;;10.82;;
36371;SDS011;22398;51.346;12.372;2023-03-02T10:09:31;26.52;;;11.77;;
36371;SDS011;22398;51.346;12.372;2023-03-02T10:14:36;28.85;;;12.20;;
36371;SDS011;22398;51.346;12.372;2023-03-02T10:19:47;28.80;;;12.27;;
36371;SDS011;22398;51.346;12.372;2023-03-02T10:25:00;30.40;;;12.45;;
36371;SDS011;22398;51.346;12.372;2023-03-02T10:30:18;25.23;;;11.88;;
36371;SDS011;22398;51.346;12.372;2023-03-02T10:35:33;24.83;;;10.40;;
36371;SDS011;22398;51.346;12.372;2023-03-02T10:40:39;33.38;;;13.20;;
36371;SDS011;22398;51.346;12.372;2023-03-02T10:50:51;28.88;;;12.23;;
36371;SDS011;22398;51.346;12.372;2023-03-02T10:55:55;25.13;;;11.75;;
36371;SDS011;22398;51.346;12.372;2023-03-02T11:00:59;28.40;;;11.35;;
36371;SDS011;22398;51.346;12.372;2023-03-02T11:06:19;23.47;;;11.17;;
36371;SDS011;22398;51.346;12.372;2023-03-02T11:11:23;19.08;;;9.63;;
36371;SDS011;22398;51.346;12.372;2023-03-02T11:16:29;24.02;;;11.60;;
36371;SDS011;22398;51.346;12.372;2023-03-02T11:21:36;24.40;;;11.70;;
36371;SDS011;22398;51.346;12.372;2023-03-02T11:26:44;25.88;;;11.52;;
36371;SDS011;22398;51.346;12.372;2023-03-02T11:31:52;24.85;;;11.18;;
36371;SDS011;22398;51.346;12.372;2023-03-02T11:37:02;23.05;;;11.40;;
36371;SDS011;22398;51.346;12.372;2023-03-02T11:42:17;28.40;;;11.57;;
36371;SDS011;22398;51.346;12.372;2023-03-02T11:47:22;23.25;;;9.88;;
36371;SDS011;22398;51.346;12.372;2023-03-02T11:52:29;22.85;;;10.63;;
36371;SDS011;22398;51.346;12.372;2023-03-02T11:57:37;21.52;;;10.55;;
36371;SDS011;22398;51.346;12.372;2023-03-02T12:02:45;22.52;;;9.57;;
36371;SDS011;22398;51.346;12.372;2023-03-02T12:08:02;24.80;;;10.23;;
36371;SDS011;22398;51.346;12.372;2023-03-02T12:13:17;22.38;;;10.02;;
36371;SDS011;22398;51.346;12.372;2023-03-02T12:18:42;17.27;;;8.98;;
36371;SDS011;22398;51.346;12.372;2023-03-02T12:23:58;18.98;;;9.80;;
36371;SDS011;22398;51.346;12.372;2023-03-02T12:29:06;18.13;;;9.20;;
36371;SDS011;22398;51.346;12.372;2023-03-02T12:34:35;20.38;;;9.43;;
36371;SDS011;22398;51.346;12.372;2023-03-02T12:39:45;18.13;;;8.55;;
36371;SDS011;22398;51.346;12.372;2023-03-02T12:45:25;15.38;;;8.18;;
36371;SDS011;22398;51.346;12.372;2023-03-02T12:50:39;18.02;;;8.27;;
36371;SDS011;22398;51.346;12.372;2023-03-02T12:55:46;16.58;;;8.07;;
36371;SDS011;22398;51.346;12.372;2023-03-02T13:00:49;19.17;;;7.35;;
36371;SDS011;22398;51.346;12.372;2023-03-02T13:05:59;12.90;;;5.77;;
36371;SDS011;22398;51.346;12.372;2023-03-02T13:11:05;12.93;;;6.22;;
36371;SDS011;22398;51.346;12.372;2023-03-02T13:16:17;14.97;;;6.60;;
36371;SDS011;22398;51.346;12.372;2023-03-02T13:21:28;13.35;;;6.38;;
36371;SDS011;22398;51.346;12.372;2023-03-02T13:26:35;14.93;;;7.13;;
36371;SDS011;22398;51.346;12.372;2023-03-02T13:31:40;15.93;;;7.03;;
36371;SDS011;22398;51.346;12.372;2023-03-02T13:36:44;13.65;;;7.18;;
36371;SDS011;22398;51.346;12.372;2023-03-02T13:41:52;15.07;;;6.80;;
36371;SDS011;22398;51.346;12.372;2023-03-02T13:46:57;14.02;;;7.00;;
36371;SDS011;22398;51.346;12.372;2023-03-02T13:52:01;16.20;;;7.38;;
36371;SDS011;22398;51.346;12.372;2023-03-02T13:57:11;17.35;;;8.55;;
36371;SDS011;22398;51.346;12.372;2023-03-02T14:02:21;21.95;;;9.07;;
36371;SDS011;22398;51.346;12.372;2023-03-02T14:07:26;15.13;;;7.88;;
36371;SDS011;22398;51.346;12.372;2023-03-02T14:12:31;19.48;;;7.45;;
36371;SDS011;22398;51.346;12.372;2023-03-02T14:17:34;18.10;;;7.80;;
36371;SDS011;22398;51.346;12.372;2023-03-02T14:22:37;16.15;;;7.43;;
36371;SDS011;22398;51.346;12.372;2023-03-02T14:27:42;13.55;;;6.28;;
36371;SDS011;22398;51.346;12.372;2023-03-02T14:32:47;13.95;;;7.30;;
36371;SDS011;22398;51.346;12.372;2023-03-02T14:37:52;17.92;;;7.15;;
36371;SDS011;22398;51.346;12.372;2023-03-02T14:42:56;12.77;;;6.93;;
36371;SDS011;22398;51.346;12.372;2023-03-02T14:48:00;12.80;;;7.28;;
36371;SDS011;22398;51.346;12.372;2023-03-02T14:53:04;14.63;;;6.85;;
36371;SDS011;22398;51.346;12.372;2023-03-02T14:58:14;20.95;;;7.95;;
36371;SDS011;22398;51.346;12.372;2023-03-02T15:03:20;16.75;;;6.50;;
36371;SDS011;22398;51.346;12.372;2023-03-02T15:13:30;14.50;;;7.38;;
36371;SDS011;22398;51.346;12.372;2023-03-02T15:18:34;15.60;;;7.60;;
36371;SDS011;22398;51.346;12.372;2023-03-02T15:23:38;13.93;;;6.30;;
36371;SDS011;22398;51.346;12.372;2023-03-02T15:28:43;13.95;;;6.68;;
36371;SDS011;22398;51.346;12.372;2023-03-02T15:33:47;13.25;;;6.45;;
36371;SDS011;22398;51.346;12.372;2023-03-02T15:38:52;15.73;;;9.07;;
36371;SDS011;22398;51.346;12.372;2023-03-02T15:43:57;16.60;;;6.22;;
36371;SDS011;22398;51.346;12.372;2023-03-02T15:49:00;12.27;;;6.13;;
36371;SDS011;22398;51.346;12.372;2023-03-02T15:54:04;15.25;;;6.60;;
36371;SDS011;22398;51.346;12.372;2023-03-02T15:59:12;12.77;;;6.40;;
36371;SDS011;22398;51.346;12.372;2023-03-02T16:04:16;14.40;;;7.05;;
36371;SDS011;22398;51.346;12.372;2023-03-02T16:09:20;15.27;;;6.43;;
36371;SDS011;22398;51.346;12.372;2023-03-02T16:14:26;14.32;;;6.20;;
36371;SDS011;22398;51.346;12.372;2023-03-02T16:19:29;12.63;;;6.63;;
36371;SDS011;22398;51.346;12.372;2023-03-02T16:24:34;18.02;;;7.00;;
36371;SDS011;22398;51.346;12.372;2023-03-02T16:29:38;12.20;;;6.85;;
36371;SDS011;22398;51.346;12.372;2023-03-02T16:34:42;19.73;;;7.13;;
36371;SDS011;22398;51.346;12.372;2023-03-02T16:39:45;13.10;;;6.57;;
36371;SDS011;22398;51.346;12.372;2023-03-02T16:44:50;15.38;;;6.90;;
36371;SDS011;22398;51.346;12.372;2023-03-02T16:49:53;16.60;;;6.47;;
36371;SDS011;22398;51.346;12.372;2023-03-02T16:54:56;16.10;;;6.93;;
36371;SDS011;22398;51.346;12.372;2023-03-02T17:00:02;13.77;;;6.93;;
36371;SDS011;22398;51.346;12.372;2023-03-02T17:05:06;8.95;;;5.35;;
36371;SDS011;22398;51.346;12.372;2023-03-02T17:10:11;11.93;;;6.32;;
36371;SDS011;22398;51.346;12.372;2023-03-02T17:20:20;37.30;;;16.85;;
36371;SDS011;22398;51.346;12.372;2023-03-02T17:25:24;38.42;;;16.80;;
36371;SDS011;22398;51.346;12.372;2023-03-02T17:30:29;38.92;;;18.08;;
36371;SDS011;22398;51.346;12.372;2023-03-02T17:35:33;41.75;;;18.98;;
36371;SDS011;22398;51.346;12.372;2023-03-02T17:40:37;45.72;;;20.80;;
36371;SDS011;22398;51.346;12.372;2023-03-02T17:45:41;44.25;;;19.13;;
36371;SDS011;22398;51.346;12.372;2023-03-02T17:50:46;48.90;;;19.30;;
36371;SDS011;22398;51.346;12.372;2023-03-02T17:55:50;46.65;;;20.83;;
36371;SDS011;22398;51.346;12.372;2023-03-02T18:00:54;50.20;;;21.00;;
36371;SDS011;22398;51.346;12.372;2023-03-02T18:05:58;47.60;;;21.33;;
36371;SDS011;22398;51.346;12.372;2023-03-02T18:11:01;42.63;;;20.35;;
36371;SDS011;22398;51.346;12.372;2023-03-02T18:16:06;43.47;;;19.30;;
36371;SDS011;22398;51.346;12.372;2023-03-02T18:21:10;47.85;;;18.40;;
36371;SDS011;22398;51.346;12.372;2023-03-02T18:26:14;45.03;;;19.13;;
36371;SDS011;22398;51.346;12.372;2023-03-02T18:31:19;48.90;;;21.15;;
36371;SDS011;22398;51.346;12.372;2023-03-02T18:36:23;46.33;;;20.80;;
36371;SDS011;22398;51.346;12.372;2023-03-02T18:41:26;59.85;;;21.88;;
36371;SDS011;22398;51.346;12.372;2023-03-02T18:46:32;51.28;;;20.10;;
36371;SDS011;22398;51.346;12.372;2023-03-02T18:51:35;43.27;;;18.93;;
36371;SDS011;22398;51.346;12.372;2023-03-02T18:56:38;45.80;;;20.73;;
36371;SDS011;22398;51.346;12.372;2023-03-02T19:01:43;48.55;;;18.95;;
36371;SDS011;22398;51.346;12.372;2023-03-02T19:11:51;51.55;;;20.77;;
36371;SDS011;22398;51.346;12.372;2023-03-02T19:16:56;41.72;;;19.52;;
36371;SDS011;22398;51.346;12.372;2023-03-02T19:21:59;41.67;;;17.93;;
36371;SDS011;22398;51.346;12.372;2023-03-02T19:27:03;54.38;;;20.52;;
36371;SDS011;22398;51.346;12.372;2023-03-02T19:32:08;41.63;;;18.77;;
36371;SDS011;22398;51.346;12.372;2023-03-02T19:37:15;49.92;;;20.55;;
36371;SDS011;22398;51.346;12.372;2023-03-02T19:42:18;50.97;;;20.25;;
36371;SDS011;22398;51.346;12.372;2023-03-02T19:47:23;47.30;;;20.20;;
36371;SDS011;22398;51.346;12.372;2023-03-02T19:52:26;44.57;;;17.63;;
36371;SDS011;22398;51.346;12.372;2023-03-02T19:57:31;44.17;;;17.30;;
36371;SDS011;22398;51.346;12.372;2023-03-02T20:02:35;48.90;;;18.95;;
36371;SDS011;22398;51.346;12.372;2023-03-02T20:07:41;46.95;;;18.52;;
36371;SDS011;22398;51.346;12.372;2023-03-02T20:12:44;50.85;;;20.75;;
36371;SDS011;22398;51.346;12.372;2023-03-02T20:17:49;55.10;;;20.77;;
36371;SDS011;22398;51.346;12.372;2023-03-02T20:22:52;54.43;;;19.97;;
36371;SDS011;22398;51.346;12.372;2023-03-02T20:27:56;48.97;;;20.02;;
36371;SDS011;22398;51.346;12.372;2023-03-02T20:33:01;52.22;;;19.50;;
36371;SDS011;22398;51.346;12.372;2023-03-02T20:38:06;50.30;;;21.55;;
36371;SDS011;22398;51.346;12.372;2023-03-02T20:43:11;52.20;;;19.17;;
36371;SDS011;22398;51.346;12.372;2023-03-02T20:48:16;47.80;;;22.30;;
36371;SDS011;22398;51.346;12.372;2023-03-02T20:53:22;55.65;;;19.88;;
36371;SDS011;22398;51.346;12.372;2023-03-02T20:58:25;66.85;;;21.50;;
36371;SDS011;22398;51.346;12.372;2023-03-02T21:03:30;53.33;;;18.98;;
36371;SDS011;22398;51.346;12.372;2023-03-02T21:08:33;60.38;;;21.65;;
36371;SDS011;22398;51.346;12.372;2023-03-02T21:18:43;64.80;;;20.40;;
36371;SDS011;22398;51.346;12.372;2023-03-02T21:23:47;60.37;;;21.37;;
36371;SDS011;22398;51.346;12.372;2023-03-02T21:28:50;52.60;;;19.67;;
36371;SDS011;22398;51.346;12.372;2023-03-02T21:33:56;59.00;;;23.00;;
36371;SDS011;22398;51.346;12.372;2023-03-02T21:39:01;51.20;;;20.42;;
36371;SDS011;22398;51.346;12.372;2023-03-02T21:44:05;65.07;;;21.93;;
36371;SDS011;22398;51.346;12.372;2023-03-02T21:49:11;71.45;;;22.10;;
36371;SDS011;22398;51.346;12.372;2023-03-02T21:54:17;67.07;;;21.90;;
36371;SDS011;22398;51.346;12.372;2023-03-02T21:59:20;87.60;;;22.95;;
36371;SDS011;22398;51.346;12.372;2023-03-02T22:04:25;80.20;;;21.92;;
36371;SDS011;22398;51.346;12.372;2023-03-02T22:09:28;59.10;;;22.53;;
36371;SDS011;22398;51.346;12.372;2023-03-02T22:14:32;58.92;;;21.30;;
36371;SDS011;22398;51.346;12.372;2023-03-02T22:19:37;51.78;;;18.95;;
36371;SDS011;22398;51.346;12.372;2023-03-02T22:24:40;64.73;;;22.20;;
36371;SDS011;22398;51.346;12.372;2023-03-02T22:29:45;72.10;;;21.15;;
36371;SDS011;22398;51.346;12.372;2023-03-02T22:34:52;71.70;;;23.13;;
36371;SDS011;22398;51.346;12.372;2023-03-02T22:39:56;72.03;;;21.15;;
36371;SDS011;22398;51.346;12.372;2023-03-02T22:45:05;78.57;;;22.85;;
36371;SDS011;22398;51.346;12.372;2023-03-02T22:50:20;76.13;;;25.48;;
36371;SDS011;22398;51.346;12.372;2023-03-02T22:55:29;101.85;;;20.35;;
36371;SDS011;22398;51.346;12.372;2023-03-02T23:00:38;66.65;;;21.05;;
36371;SDS011;22398;51.346;12.372;2023-03-02T23:05:44;86.55;;;20.05;;
36371;SDS011;22398;51.346;12.372;2023-03-02T23:10:50;79.80;;;19.65;;
36371;SDS011;22398;51.346;12.372;2023-03-02T23:21:00;51.53;;;15.02;;
36371;SDS011;22398;51.346;12.372;2023-03-02T23:26:04;57.25;;;18.02;;
36371;SDS011;22398;51.346;12.372;2023-03-02T23:31:07;60.40;;;18.33;;
36371;SDS011;22398;51.346;12.372;2023-03-02T23:36:13;64.75;;;18.23;;
36371;SDS011;22398;51.346;12.372;2023-03-02T23:41:16;70.07;;;17.48;;
36371;SDS011;22398;51.346;12.372;2023-03-02T23:46:20;47.20;;;13.90;;
36371;SDS011;22398;51.346;12.372;2023-03-02T23:51:25;48.08;;;15.82;;
36371;SDS011;22398;51.346;12.372;2023-03-02T23:56:29;59.05;;;17.75;;
